createdAt,value
2019-03-09T00:01:50.772Z,21.53
2019-03-09T00:04:23.035Z,16.43
2019-03-09T00:06:54.995Z,14.37
2019-03-09T00:09:26.943Z,14.63
2019-03-09T00:11:59.232Z,25.27
2019-03-09T00:14:31.185Z,15.83
2019-03-09T00:17:03.159Z,21.70
2019-03-09T00:19:35.127Z,18.77
2019-03-09T00:22:07.080Z,20.67
2019-03-09T00:24:40.671Z,17.87
2019-03-09T00:27:16.984Z,17.27
2019-03-09T00:29:50.567Z,26.03
2019-03-09T00:32:23.815Z,19.23
2019-03-09T00:34:56.031Z,18.70
2019-03-09T00:37:27.991Z,18.53
2019-03-09T00:39:59.952Z,24.00
2019-03-09T00:42:31.923Z,26.90
2019-03-09T00:45:04.138Z,18.90
2019-03-09T00:47:36.099Z,20.10
2019-03-09T00:50:11.150Z,19.87
2019-03-09T00:52:43.452Z,16.40
2019-03-09T00:55:15.739Z,18.77
2019-03-09T00:57:47.995Z,26.90
2019-03-09T01:00:20.652Z,24.70
2019-03-09T01:02:52.648Z,17.50
2019-03-09T01:05:24.918Z,15.57
2019-03-09T01:07:57.183Z,22.57
2019-03-09T01:10:29.201Z,23.30
2019-03-09T01:13:01.158Z,19.30
2019-03-09T01:15:33.243Z,21.47
2019-03-09T01:18:05.862Z,11.50
2019-03-09T01:20:38.130Z,17.90
2019-03-09T01:23:10.099Z,19.43
2019-03-09T01:25:42.060Z,13.87
2019-03-09T01:28:14.323Z,23.77
2019-03-09T01:30:46.413Z,19.87
2019-03-09T01:33:18.812Z,22.50
2019-03-09T01:35:50.823Z,19.37
2019-03-09T01:38:23.322Z,22.03
2019-03-09T01:40:55.264Z,18.53
2019-03-09T01:43:27.251Z,19.03
2019-03-09T01:45:59.555Z,19.27
2019-03-09T01:48:31.593Z,18.67
2019-03-09T01:51:03.722Z,17.07
2019-03-09T01:53:36.983Z,18.27
2019-03-09T01:56:09.101Z,22.10
2019-03-09T01:58:41.678Z,17.63
2019-03-09T02:01:13.620Z,20.50
2019-03-09T02:03:45.589Z,17.43
2019-03-09T02:06:17.979Z,23.03
2019-03-09T02:08:50.357Z,18.13
2019-03-09T02:11:22.379Z,21.50
2019-03-09T02:13:54.332Z,21.90
2019-03-09T02:16:26.662Z,21.17
2019-03-09T02:18:58.716Z,16.37
2019-03-09T02:21:30.666Z,21.23
2019-03-09T02:24:02.636Z,21.00
2019-03-09T02:26:34.594Z,22.80
2019-03-09T02:29:06.578Z,25.37
2019-03-09T02:31:38.516Z,23.40
2019-03-09T02:34:10.487Z,25.97
2019-03-09T02:36:42.658Z,23.13
2019-03-09T02:39:22.244Z,20.10
2019-03-09T02:41:54.202Z,22.37
2019-03-09T02:44:26.158Z,21.27
2019-03-09T02:46:58.139Z,20.93
2019-03-09T02:49:30.389Z,21.13
2019-03-09T02:52:02.349Z,24.50
2019-03-09T02:54:34.315Z,26.80
2019-03-09T02:57:06.789Z,23.03
2019-03-09T02:59:38.775Z,21.40
2019-03-09T03:02:12.399Z,23.03
2019-03-09T03:04:44.342Z,28.47
2019-03-09T03:07:16.313Z,25.80
2019-03-09T03:09:48.259Z,23.67
2019-03-09T03:12:20.234Z,23.17
2019-03-09T03:14:52.358Z,21.43
2019-03-09T03:17:24.497Z,21.20
2019-03-09T03:19:56.457Z,25.13
2019-03-09T03:22:28.425Z,25.10
2019-03-09T03:25:00.460Z,25.43
2019-03-09T03:27:32.450Z,22.47
2019-03-09T03:30:06.341Z,20.63
2019-03-09T03:32:38.427Z,23.63
2019-03-09T03:35:10.448Z,21.03
2019-03-09T03:37:42.411Z,20.47
2019-03-09T03:40:31.797Z,21.57
2019-03-09T03:43:03.743Z,20.73
2019-03-09T03:45:35.704Z,20.37
2019-03-09T03:48:07.663Z,17.67
2019-03-09T03:50:39.615Z,19.00
2019-03-09T03:53:11.894Z,18.40
2019-03-09T03:55:43.857Z,22.00
2019-03-09T03:58:15.866Z,16.97
2019-03-09T04:00:47.887Z,19.90
2019-03-09T04:03:19.922Z,19.23
2019-03-09T04:05:52.260Z,17.00
2019-03-09T04:08:24.709Z,15.17
2019-03-09T04:10:56.682Z,20.70
2019-03-09T04:13:28.652Z,18.50
2019-03-09T04:16:00.604Z,21.00
2019-03-09T04:18:32.588Z,17.37
2019-03-09T04:21:04.841Z,16.07
2019-03-09T04:23:36.812Z,15.87
2019-03-09T04:26:08.776Z,14.67
2019-03-09T04:28:40.729Z,16.77
2019-03-09T04:31:12.712Z,17.17
2019-03-09T04:33:44.644Z,11.90
2019-03-09T04:36:16.606Z,14.63
2019-03-09T04:38:48.554Z,18.03
2019-03-09T04:41:20.509Z,15.67
2019-03-09T04:43:52.510Z,18.83
2019-03-09T04:46:24.467Z,13.93
2019-03-09T04:48:56.430Z,13.57
2019-03-09T04:51:28.416Z,16.97
2019-03-09T04:54:00.373Z,13.90
2019-03-09T04:56:32.343Z,17.37
2019-03-09T04:59:20.069Z,15.73
2019-03-09T05:01:52.053Z,15.93
2019-03-09T05:04:34.431Z,18.73
2019-03-09T05:07:06.382Z,14.63
2019-03-09T05:09:51.799Z,16.30
2019-03-09T05:12:23.771Z,19.93
2019-03-09T05:14:55.723Z,14.83
2019-03-09T05:17:27.680Z,14.73
2019-03-09T05:19:59.769Z,15.43
2019-03-09T05:22:31.706Z,13.70
2019-03-09T05:25:03.727Z,10.27
2019-03-09T05:27:37.285Z,17.13
2019-03-09T05:30:14.142Z,11.90
2019-03-09T05:32:46.103Z,13.33
2019-03-09T05:35:18.374Z,13.97
2019-03-09T05:37:50.388Z,10.60
2019-03-09T05:40:22.435Z,11.93
2019-03-09T05:42:54.410Z,14.53
2019-03-09T05:45:26.355Z,12.03
2019-03-09T05:47:58.321Z,11.90
2019-03-09T05:50:30.363Z,11.37
2019-03-09T05:53:18.283Z,12.20
2019-03-09T05:55:50.228Z,10.20
2019-03-09T05:58:22.208Z,14.00
2019-03-09T06:00:54.158Z,15.83
2019-03-09T06:03:26.119Z,11.00
2019-03-09T06:05:58.151Z,10.80
2019-03-09T06:08:33.179Z,9.83
2019-03-09T06:11:03.747Z,13.77
2019-03-09T06:13:35.787Z,10.57
2019-03-09T06:16:07.731Z,11.67
2019-03-09T06:18:39.693Z,12.60
2019-03-09T06:21:11.942Z,14.33
2019-03-09T06:23:44.215Z,11.40
2019-03-09T06:26:16.483Z,11.70
2019-03-09T06:28:48.447Z,12.97
2019-03-09T06:31:20.400Z,13.47
2019-03-09T06:33:53.349Z,11.17
2019-03-09T06:36:32.644Z,8.97
2019-03-09T06:39:08.074Z,9.30
2019-03-09T06:42:09.280Z,8.60
2019-03-09T06:44:41.232Z,8.77
2019-03-09T06:47:13.183Z,6.97
2019-03-09T06:49:45.123Z,6.47
2019-03-09T06:52:17.104Z,6.53
2019-03-09T06:54:49.035Z,6.73
2019-03-09T06:57:21.017Z,7.00
2019-03-09T06:59:52.964Z,7.70
2019-03-09T07:02:24.939Z,7.40
2019-03-09T07:04:56.884Z,8.17
2019-03-09T07:07:29.146Z,6.00
2019-03-09T07:10:01.436Z,9.20
2019-03-09T07:12:33.420Z,8.27
2019-03-09T07:15:30.446Z,12.00
2019-03-09T07:18:09.678Z,8.07
2019-03-09T07:20:41.998Z,11.27
2019-03-09T07:23:13.943Z,10.17
2019-03-09T07:25:46.172Z,8.77
2019-03-09T07:28:18.207Z,10.87
2019-03-09T07:30:50.153Z,9.00
2019-03-09T07:33:22.100Z,9.63
2019-03-09T07:35:54.099Z,11.77
2019-03-09T07:38:26.042Z,14.53
2019-03-09T07:40:57.990Z,17.23
2019-03-09T07:43:30.251Z,13.20
2019-03-09T07:46:02.197Z,16.67
2019-03-09T07:48:34.161Z,23.43
2019-03-09T07:51:06.468Z,17.17
2019-03-09T07:53:38.440Z,21.67
2019-03-09T07:56:10.703Z,18.80
2019-03-09T07:58:42.668Z,16.27
2019-03-09T08:01:14.621Z,11.80
2019-03-09T08:03:46.577Z,13.10
2019-03-09T08:06:18.524Z,20.13
2019-03-09T08:08:50.484Z,14.07
2019-03-09T08:11:22.454Z,21.77
2019-03-09T08:13:54.441Z,15.17
2019-03-09T08:16:35.173Z,23.20
2019-03-09T08:19:00.061Z,18.80
2019-03-09T08:21:32.062Z,24.93
2019-03-09T08:24:04.012Z,18.23
2019-03-09T08:26:35.983Z,24.83
2019-03-09T08:29:07.963Z,28.43
2019-03-09T08:31:39.925Z,28.13
2019-03-09T08:34:11.878Z,23.80
2019-03-09T08:36:43.947Z,20.80
2019-03-09T08:39:16.218Z,19.60
2019-03-09T08:41:48.230Z,26.83
2019-03-09T08:44:20.174Z,25.23
2019-03-09T08:46:52.125Z,25.33
2019-03-09T08:49:24.100Z,29.33
2019-03-09T08:51:56.101Z,26.43
2019-03-09T08:54:28.068Z,25.97
2019-03-09T08:57:00.037Z,34.00
2019-03-09T08:59:31.980Z,24.67
2019-03-09T09:02:04.302Z,34.27
2019-03-09T09:04:36.577Z,31.70
2019-03-09T09:07:08.613Z,41.83
2019-03-09T09:09:40.564Z,30.20
2019-03-09T09:12:12.878Z,34.57
2019-03-09T09:14:44.911Z,32.47
2019-03-09T09:17:16.939Z,42.67
2019-03-09T09:19:48.899Z,37.20
2019-03-09T09:22:20.858Z,31.07
2019-03-09T09:24:52.856Z,33.93
2019-03-09T09:27:25.174Z,29.17
2019-03-09T09:29:57.217Z,30.73
2019-03-09T09:32:29.188Z,29.87
2019-03-09T09:35:01.479Z,35.27
2019-03-09T09:37:33.519Z,31.20
2019-03-09T09:40:18.438Z,28.27
2019-03-09T09:42:50.682Z,39.63
2019-03-09T09:45:23.168Z,32.90
2019-03-09T09:47:55.149Z,34.87
2019-03-09T09:50:27.381Z,36.00
2019-03-09T09:52:59.367Z,24.93
2019-03-09T09:55:31.329Z,35.50
2019-03-09T09:58:03.301Z,31.73
2019-03-09T10:00:35.275Z,30.07
2019-03-09T10:03:07.289Z,28.83
2019-03-09T10:05:39.572Z,32.90
2019-03-09T10:08:11.916Z,24.33
2019-03-09T10:10:43.881Z,23.03
2019-03-09T10:13:15.917Z,12.37
2019-03-09T10:15:47.877Z,16.90
2019-03-09T10:18:19.850Z,15.70
2019-03-09T10:20:51.815Z,17.63
2019-03-09T10:23:23.763Z,17.67
2019-03-09T10:25:55.722Z,17.77
2019-03-09T10:28:27.687Z,20.47
2019-03-09T10:30:59.642Z,16.27
2019-03-09T10:33:31.626Z,16.00
2019-03-09T10:36:03.617Z,20.83
2019-03-09T10:38:35.579Z,25.57
2019-03-09T10:41:08.009Z,23.60
2019-03-09T10:43:39.960Z,20.37
2019-03-09T10:46:11.935Z,19.27
2019-03-09T10:48:43.891Z,21.83
2019-03-09T10:51:15.859Z,19.77
2019-03-09T10:53:47.813Z,23.00
2019-03-09T10:56:20.079Z,21.20
2019-03-09T10:58:52.029Z,20.03
2019-03-09T11:01:24.005Z,21.63
2019-03-09T11:03:55.978Z,23.83
2019-03-09T11:06:28.251Z,25.50
2019-03-09T11:09:00.195Z,18.00
2019-03-09T11:11:32.154Z,21.17
2019-03-09T11:14:04.130Z,26.30
2019-03-09T11:16:36.070Z,24.27
2019-03-09T11:19:08.098Z,22.90
2019-03-09T11:21:40.052Z,20.33
2019-03-09T11:24:12.020Z,22.93
2019-03-09T11:26:44.269Z,23.57
2019-03-09T11:29:16.529Z,23.00
2019-03-09T11:31:48.499Z,20.30
2019-03-09T11:34:20.473Z,20.53
2019-03-09T11:36:52.431Z,19.47
2019-03-09T11:39:24.402Z,24.17
2019-03-09T11:41:56.431Z,23.17
2019-03-09T11:44:28.727Z,18.47
2019-03-09T11:47:01.100Z,18.47
2019-03-09T11:49:33.132Z,27.40
2019-03-09T11:52:05.082Z,22.60
2019-03-09T11:54:37.411Z,27.73
2019-03-09T11:57:09.386Z,18.77
2019-03-09T11:59:41.344Z,21.73
2019-03-09T12:02:13.328Z,29.63
2019-03-09T12:04:47.035Z,18.40
2019-03-09T12:07:19.410Z,23.93
2019-03-09T12:09:51.363Z,18.00
2019-03-09T12:12:23.328Z,19.97
2019-03-09T12:14:55.291Z,23.03
2019-03-09T12:17:27.263Z,24.90
2019-03-09T12:19:59.612Z,17.33
2019-03-09T12:22:31.565Z,15.43
2019-03-09T12:25:04.119Z,15.87
2019-03-09T12:27:36.082Z,21.03
2019-03-09T12:30:17.082Z,25.97
2019-03-09T12:32:49.186Z,17.33
2019-03-09T12:35:21.168Z,27.37
2019-03-09T12:37:53.149Z,26.10
2019-03-09T12:40:25.117Z,23.17
2019-03-09T12:42:57.410Z,29.40
2019-03-09T12:45:29.602Z,22.53
2019-03-09T12:48:01.568Z,27.87
2019-03-09T12:50:33.524Z,27.83
2019-03-09T12:53:05.489Z,35.37
2019-03-09T12:55:37.457Z,17.77
2019-03-09T12:58:09.426Z,25.67
2019-03-09T13:00:41.671Z,28.77
2019-03-09T13:03:13.876Z,24.03
2019-03-09T13:05:46.857Z,28.90
2019-03-09T13:08:18.984Z,20.00
2019-03-09T13:10:50.950Z,20.07
2019-03-09T13:13:22.910Z,31.03
2019-03-09T13:15:55.190Z,19.77
2019-03-09T13:18:27.141Z,23.97
2019-03-09T13:21:00.093Z,34.70
2019-03-09T13:23:32.058Z,26.10
2019-03-09T13:26:04.374Z,21.57
2019-03-09T13:28:36.327Z,22.83
2019-03-09T13:31:08.557Z,25.73
2019-03-09T13:33:40.539Z,31.87
2019-03-09T13:36:12.854Z,23.97
2019-03-09T13:38:45.274Z,22.17
2019-03-09T13:41:17.284Z,26.33
2019-03-09T13:43:49.286Z,20.87
2019-03-09T13:46:21.244Z,24.33
2019-03-09T13:48:53.200Z,22.90
2019-03-09T13:51:25.171Z,33.80
2019-03-09T13:53:57.128Z,25.00
2019-03-09T13:56:29.130Z,26.50
2019-03-09T13:59:01.082Z,27.50
2019-03-09T14:01:33.048Z,27.43
2019-03-09T14:04:05.388Z,30.80
2019-03-09T14:06:37.394Z,28.83
2019-03-09T14:09:09.930Z,26.33
2019-03-09T14:11:42.179Z,27.93
2019-03-09T14:14:14.448Z,27.73
2019-03-09T14:16:46.458Z,31.60
2019-03-09T14:19:18.387Z,32.07
2019-03-09T14:21:50.365Z,27.93
2019-03-09T14:24:22.619Z,27.40
2019-03-09T14:26:54.897Z,23.87
2019-03-09T14:29:27.162Z,30.23
2019-03-09T14:31:59.127Z,23.83
2019-03-09T14:34:31.110Z,23.30
2019-03-09T14:37:03.088Z,26.93
2019-03-09T14:39:35.048Z,31.03
2019-03-09T14:42:07.035Z,25.43
2019-03-09T14:44:39.378Z,21.30
2019-03-09T14:47:11.316Z,25.27
2019-03-09T14:49:46.857Z,24.93
2019-03-09T14:52:18.830Z,27.23
2019-03-09T14:54:50.815Z,28.10
2019-03-09T14:57:23.386Z,26.60
2019-03-09T14:59:55.741Z,26.30
2019-03-09T15:02:27.785Z,25.33
2019-03-09T15:04:59.747Z,24.77
2019-03-09T15:07:31.734Z,26.20
2019-03-09T15:10:03.863Z,30.20
2019-03-09T15:12:35.909Z,18.00
2019-03-09T15:15:16.930Z,25.60
2019-03-09T15:17:49.145Z,23.20
2019-03-09T15:20:21.193Z,20.37
2019-03-09T15:22:53.616Z,25.90
2019-03-09T15:25:25.678Z,25.03
2019-03-09T15:27:58.012Z,17.00
2019-03-09T15:30:30.053Z,20.87
2019-03-09T15:33:02.091Z,18.97
2019-03-09T15:35:35.398Z,21.23
2019-03-09T15:38:07.695Z,21.23
2019-03-09T15:40:39.658Z,19.93
2019-03-09T15:43:11.921Z,19.70
2019-03-09T15:45:43.913Z,17.43
2019-03-09T15:48:15.875Z,16.47
2019-03-09T15:50:47.830Z,22.07
2019-03-09T15:53:19.804Z,29.43
2019-03-09T15:55:52.066Z,25.63
2019-03-09T15:58:24.079Z,22.97
2019-03-09T16:00:56.050Z,19.97
2019-03-09T16:03:28.471Z,26.67
2019-03-09T16:06:00.445Z,25.93
2019-03-09T16:08:32.391Z,26.10
2019-03-09T16:11:04.388Z,18.60
2019-03-09T16:13:36.611Z,21.57
2019-03-09T16:16:08.624Z,17.40
2019-03-09T16:18:40.950Z,21.83
2019-03-09T16:21:12.918Z,29.13
2019-03-09T16:23:45.194Z,25.40
2019-03-09T16:26:17.149Z,18.83
2019-03-09T16:28:49.124Z,25.47
2019-03-09T16:31:21.110Z,22.10
2019-03-09T16:33:53.091Z,31.10
2019-03-09T16:36:25.024Z,20.80
2019-03-09T16:38:56.977Z,20.87
2019-03-09T16:41:28.930Z,23.90
2019-03-09T16:44:00.961Z,21.30
2019-03-09T16:46:32.914Z,25.30
2019-03-09T16:49:04.908Z,20.70
2019-03-09T16:51:36.858Z,24.20
2019-03-09T16:54:09.161Z,20.47
2019-03-09T16:56:41.433Z,20.53
2019-03-09T16:59:13.364Z,19.77
2019-03-09T17:01:45.422Z,27.37
2019-03-09T17:04:17.721Z,22.87
2019-03-09T17:06:49.689Z,18.00
2019-03-09T17:09:21.964Z,25.77
2019-03-09T17:11:53.910Z,26.23
2019-03-09T17:14:25.859Z,26.17
2019-03-09T17:16:57.813Z,26.97
2019-03-09T17:19:30.109Z,24.80
2019-03-09T17:22:02.087Z,24.07
2019-03-09T17:24:34.031Z,25.80
2019-03-09T17:27:05.996Z,23.03
2019-03-09T17:29:37.953Z,26.23
2019-03-09T17:32:09.922Z,20.67
2019-03-09T17:34:41.876Z,26.53
2019-03-09T17:37:14.276Z,33.60
2019-03-09T17:39:46.220Z,29.90
2019-03-09T17:42:18.182Z,21.73
2019-03-09T17:44:50.122Z,25.67
2019-03-09T17:47:22.091Z,22.40
2019-03-09T17:49:54.032Z,22.93
2019-03-09T17:52:26.041Z,25.70
2019-03-09T17:54:57.979Z,20.73
2019-03-09T17:57:30.295Z,30.00
2019-03-09T18:00:02.299Z,19.30
2019-03-09T18:02:34.239Z,19.10
2019-03-09T18:05:08.005Z,22.80
2019-03-09T18:07:39.944Z,22.70
2019-03-09T18:10:34.592Z,16.20
2019-03-09T18:13:06.553Z,20.10
2019-03-09T18:15:38.489Z,22.23
2019-03-09T18:18:10.460Z,19.57
2019-03-09T18:20:42.694Z,25.13
2019-03-09T18:23:14.664Z,21.80
2019-03-09T18:25:46.978Z,18.43
2019-03-09T18:28:18.932Z,14.97
2019-03-09T18:30:51.212Z,18.83
2019-03-09T18:33:23.165Z,22.30
2019-03-09T18:35:55.176Z,16.03
2019-03-09T18:38:27.529Z,20.53
2019-03-09T18:40:59.522Z,4.80
2019-03-09T18:43:31.475Z,5.40
2019-03-09T18:46:03.436Z,7.27
2019-03-09T18:48:35.392Z,7.67
2019-03-09T18:51:07.347Z,3.97
2019-03-09T18:53:39.294Z,9.43
2019-03-09T18:56:11.242Z,7.20
2019-03-09T18:58:43.178Z,4.00
2019-03-09T19:01:15.128Z,8.93
2019-03-09T19:03:47.085Z,8.57
2019-03-09T19:06:19.089Z,5.53
2019-03-09T19:08:51.037Z,8.37
2019-03-09T19:11:23.367Z,10.13
2019-03-09T19:13:55.358Z,12.80
2019-03-09T19:16:27.697Z,3.40
2019-03-09T19:19:00.053Z,6.70
2019-03-09T19:21:32.030Z,6.00
2019-03-09T19:24:04.040Z,6.23
2019-03-09T19:26:36.035Z,3.83
2019-03-09T19:29:07.959Z,2.73
2019-03-09T19:31:40.175Z,3.43
2019-03-09T19:34:12.128Z,4.37
2019-03-09T19:36:44.429Z,8.97
2019-03-09T19:39:16.369Z,2.70
2019-03-09T19:41:48.651Z,3.87
2019-03-09T19:44:20.656Z,10.27
2019-03-09T19:46:52.588Z,5.50
2019-03-09T19:49:24.533Z,3.27
2019-03-09T19:51:56.483Z,5.03
2019-03-09T19:54:28.419Z,6.70
2019-03-09T19:57:00.670Z,2.57
2019-03-09T19:59:32.607Z,4.33
2019-03-09T20:02:04.637Z,3.80
2019-03-09T20:04:36.581Z,4.17
2019-03-09T20:07:08.677Z,6.33
2019-03-09T20:09:40.632Z,2.80
2019-03-09T20:12:12.933Z,5.50
2019-03-09T20:14:44.927Z,4.57
2019-03-09T20:17:17.163Z,8.63
2019-03-09T20:19:49.117Z,3.50
2019-03-09T20:22:21.063Z,9.07
2019-03-09T20:24:53.366Z,8.80
2019-03-09T20:27:25.997Z,7.40
2019-03-09T20:29:58.263Z,4.50
2019-03-09T20:32:31.676Z,7.10
2019-03-09T20:35:03.617Z,9.10
2019-03-09T20:37:35.666Z,13.27
2019-03-09T20:40:16.381Z,7.90
2019-03-09T20:42:48.399Z,11.47
2019-03-09T20:45:24.190Z,12.17
2019-03-09T20:47:56.165Z,10.60
2019-03-09T20:50:28.101Z,9.07
2019-03-09T20:53:00.449Z,13.80
2019-03-09T20:55:32.422Z,12.50
2019-03-09T20:58:04.362Z,11.87
2019-03-09T21:00:36.324Z,11.20
2019-03-09T21:03:08.442Z,16.70
2019-03-09T21:05:40.690Z,15.27
2019-03-09T21:08:12.642Z,10.10
2019-03-09T21:10:44.664Z,12.53
2019-03-09T21:13:16.592Z,13.13
2019-03-09T21:15:48.841Z,10.57
2019-03-09T21:18:21.115Z,13.97
2019-03-09T21:20:53.087Z,11.93
2019-03-09T21:23:25.103Z,10.50
2019-03-09T21:25:57.617Z,14.47
2019-03-09T21:28:29.544Z,8.80
2019-03-09T21:31:01.598Z,11.77
2019-03-09T21:33:33.543Z,14.03
2019-03-09T21:36:05.495Z,6.80
2019-03-09T21:38:37.441Z,8.47
2019-03-09T21:41:09.416Z,11.70
2019-03-09T21:43:41.541Z,10.37
2019-03-09T21:46:13.844Z,12.23
2019-03-09T21:48:45.810Z,10.60
2019-03-09T21:51:18.056Z,8.83
2019-03-09T21:53:50.032Z,11.37
2019-03-09T21:56:21.985Z,15.10
2019-03-09T21:58:53.987Z,8.00
2019-03-09T22:01:25.981Z,14.13
2019-03-09T22:03:58.206Z,14.43
2019-03-09T22:06:30.156Z,7.73
2019-03-09T22:09:02.122Z,11.00
2019-03-09T22:11:34.165Z,18.63
2019-03-09T22:14:06.379Z,13.97
2019-03-09T22:16:38.339Z,15.10
2019-03-09T22:19:10.597Z,18.43
2019-03-09T22:21:42.846Z,9.00
2019-03-09T22:24:15.139Z,11.57
2019-03-09T22:26:47.727Z,12.47
2019-03-09T22:29:19.685Z,13.17
2019-03-09T22:31:51.636Z,14.33
2019-03-09T22:34:24.123Z,11.73
2019-03-09T22:36:56.067Z,13.73
2019-03-09T22:39:28.033Z,19.20
2019-03-09T22:42:00.068Z,19.37
2019-03-09T22:44:32.055Z,17.93
2019-03-09T22:47:11.533Z,17.60
2019-03-09T22:49:38.495Z,16.17
2019-03-09T22:52:10.577Z,14.27
2019-03-09T22:54:42.536Z,18.07
2019-03-09T22:57:14.503Z,20.17
2019-03-09T22:59:46.646Z,19.83
2019-03-09T23:02:18.896Z,12.07
2019-03-09T23:04:52.663Z,12.40
2019-03-09T23:07:24.816Z,16.77
2019-03-09T23:09:57.162Z,12.50
2019-03-09T23:12:29.098Z,12.67
2019-03-09T23:15:01.157Z,17.20
2019-03-09T23:17:33.110Z,16.33
2019-03-09T23:20:09.506Z,17.27
2019-03-09T23:22:41.473Z,15.73
2019-03-09T23:25:15.019Z,15.63
2019-03-09T23:27:47.341Z,17.13
2019-03-09T23:30:21.106Z,14.60
2019-03-09T23:32:53.418Z,18.10
2019-03-09T23:35:25.437Z,20.03
2019-03-09T23:37:57.683Z,18.73
2019-03-09T23:40:29.633Z,18.37
2019-03-09T23:43:01.627Z,17.23
2019-03-09T23:45:33.575Z,18.43
2019-03-09T23:48:05.538Z,20.67
2019-03-09T23:50:37.477Z,21.23
2019-03-09T23:53:09.473Z,19.77
2019-03-09T23:55:41.417Z,15.87
2019-03-09T23:58:13.374Z,14.83
